Details for Transavia (Netherlands) at EHEH




Go Back


Latest METAR
Local Time

EHEH 061755Z AUTO 28011KT 240V330 9999 BKN070 OVC075 16/08 Q1022 BLU 28010KT CAVOK
06/04/2020, 20:35:07

Description
Results
Transavia (Netherlands) Logo
Number of Pilots based at EHEH
0 Pilots Based here
Number of Transavia (Netherlands) Flights Departed from EHEH
7 Flights Departed
Number of Transavia (Netherlands) Flights Arrived at EHEH
5 Flights Arrived
Number of Transavia (Netherlands) Schedules Departing from EHEH
137 Schedules
Number of Transavia (Netherlands) Schedules Arriving at EHEH
137 Schedules
Number of Transavia (Netherlands) Schedules Departing from EHEH availible today
22 Schedules Today
Number of Transavia (Netherlands) Schedules Arriving at EHEH availible today
22 Schedules Today
Average Landing Rate at EHEH
-191 fpm
Transavia (Netherlands) Average Landing Rate at EHEH
-144 fpm
Total Fuel Purchased at EHEH by Transavia (Netherlands)
16,442.27 kgs / 36,248.63 lbs

Pilots Based at EHEH


Pilot ID
Pilot Name
Pilot Rank
No. of Flights
No. of Flying Hours
There are no pilots assigned to this hub!   Will you be the first?